Time;durP1;ratioP1;P1;durP2;ratioP2;P2;SDS_P1;SDS_P2;PMS_P1;PMS_P2;Temp;Humidity;BMP_temperature;BMP_pressure;BME280_temperature;BME280_humidity;BME280_pressure;Samples;Min_cycle;Max_cycle;Signal;HPM_P1;HPM_P2
2022/01/19 00:00:37;;;;;;;13.90;9.27;;;1.70;99.90;;;;;;5037401;28;20665;-88
2022/01/19 00:03:03;;;;;;;16.73;9.53;;;1.60;99.90;;;;;;5036829;28;20169;-86
2022/01/19 00:05:29;;;;;;;16.40;8.93;;;1.70;99.90;;;;;;5036182;28;20255;-87
2022/01/19 00:07:55;;;;;;;13.87;8.70;;;1.70;99.90;;;;;;5018478;28;20173;-87
2022/01/19 00:10:27;;;;;;;16.37;8.90;;;1.70;99.90;;;;;;5036558;28;20210;-87
2022/01/19 00:12:57;;;;;;;16.13;8.83;;;1.60;99.90;;;;;;5036080;28;20222;-88
2022/01/19 00:15:25;;;;;;;15.13;8.90;;;1.60;99.90;;;;;;5036362;28;20182;-88
2022/01/19 00:17:56;;;;;;;14.93;9.23;;;1.60;99.90;;;;;;5036063;28;20167;-88
2022/01/19 00:20:22;;;;;;;17.60;8.93;;;1.60;99.90;;;;;;5035948;28;20158;-87
2022/01/19 00:22:49;;;;;;;15.93;8.47;;;1.60;99.90;;;;;;5035998;28;20521;-88
2022/01/19 00:25:15;;;;;;;16.63;9.10;;;1.50;99.90;;;;;;5036049;28;20175;-87
2022/01/19 00:27:41;;;;;;;12.93;8.50;;;1.50;99.90;;;;;;5035126;28;20202;-88
2022/01/19 00:30:08;;;;;;;14.63;8.33;;;1.60;99.90;;;;;;5017933;28;20186;-88
2022/01/19 00:32:34;;;;;;;12.93;8.67;;;1.60;99.90;;;;;;5035714;28;20172;-87
2022/01/19 00:35:00;;;;;;;15.07;8.40;;;1.50;99.90;;;;;;5018000;28;20171;-87
2022/01/19 00:37:26;;;;;;;17.43;8.60;;;1.50;99.90;;;;;;5035506;28;20181;-88
2022/01/19 00:39:52;;;;;;;16.90;9.03;;;1.40;99.90;;;;;;5035658;28;20628;-87
2022/01/19 00:42:19;;;;;;;12.37;8.10;;;1.40;99.90;;;;;;5017779;28;20178;-88
2022/01/19 00:44:45;;;;;;;13.33;7.33;;;1.40;99.90;;;;;;5035635;28;20249;-87
2022/01/19 00:47:12;;;;;;;13.03;8.23;;;1.40;99.90;;;;;;5035505;28;20249;-88
2022/01/19 00:49:38;;;;;;;13.10;8.10;;;1.40;99.90;;;;;;5035317;28;20174;-87
2022/01/19 00:52:04;;;;;;;11.53;8.43;;;1.40;99.90;;;;;;5018017;28;20548;-88
2022/01/19 00:54:30;;;;;;;16.30;9.20;;;1.40;99.90;;;;;;5038711;28;20642;-87
2022/01/19 00:56:56;;;;;;;11.83;9.03;;;1.30;99.90;;;;;;5037706;28;20177;-88
2022/01/19 00:59:21;;;;;;;11.70;8.50;;;1.30;99.90;;;;;;5020369;28;20188;-87
2022/01/19 01:01:47;;;;;;;10.13;7.80;;;1.20;99.90;;;;;;5050190;28;20192;-88
2022/01/19 01:04:14;;;;;;;9.47;8.13;;;1.20;99.90;;;;;;5055044;28;20198;-88
2022/01/19 01:06:40;;;;;;;13.60;8.70;;;1.20;99.90;;;;;;5038196;28;20206;-87
2022/01/19 01:09:06;;;;;;;14.47;8.83;;;1.10;99.90;;;;;;5035155;28;20178;-87
2022/01/19 01:11:36;;;;;;;14.27;9.33;;;1.10;99.90;;;;;;5017020;28;20715;-87
2022/01/19 01:16:50;;;;;;;11.43;8.23;;;1.10;99.90;;;;;;5034874;28;20183;-87
2022/01/19 01:19:15;;;;;;;13.10;8.60;;;1.00;99.90;;;;;;5034562;28;20260;-88
2022/01/19 01:21:41;;;;;;;11.73;8.37;;;1.00;99.90;;;;;;5016767;28;20270;-87
2022/01/19 01:24:07;;;;;;;10.90;8.57;;;1.00;99.90;;;;;;5016667;28;20641;-87
2022/01/19 01:26:33;;;;;;;14.20;8.87;;;1.00;99.90;;;;;;5034743;28;20279;-87
2022/01/19 01:28:58;;;;;;;10.33;7.93;;;1.00;99.90;;;;;;5023231;28;20166;-87
2022/01/19 01:31:24;;;;;;;12.17;8.60;;;1.00;99.90;;;;;;5057673;28;20242;-87
2022/01/19 01:33:50;;;;;;;12.40;8.10;;;1.00;99.90;;;;;;5040423;28;20249;-87
2022/01/19 01:36:16;;;;;;;10.63;8.37;;;0.90;99.90;;;;;;5041799;28;20598;-87
2022/01/19 01:38:42;;;;;;;12.20;8.37;;;0.90;99.90;;;;;;5017384;28;20176;-87
2022/01/19 01:41:12;;;;;;;11.23;8.77;;;0.80;99.90;;;;;;5035600;28;20262;-87
2022/01/19 01:43:38;;;;;;;13.33;8.10;;;0.70;99.90;;;;;;5034394;28;20292;-87
2022/01/19 01:46:10;;;;;;;11.20;8.77;;;0.60;99.90;;;;;;5034246;28;20204;-87
2022/01/19 01:48:42;;;;;;;12.80;8.53;;;0.70;99.90;;;;;;5016660;28;20621;-87
2022/01/19 01:53:54;;;;;;;12.87;8.67;;;0.70;99.90;;;;;;5034885;28;20570;-87
2022/01/19 01:56:20;;;;;;;13.93;8.57;;;0.60;99.90;;;;;;5034170;28;20176;-88
2022/01/19 01:58:48;;;;;;;14.33;8.40;;;0.60;99.90;;;;;;5034018;28;20181;-88
2022/01/19 02:01:14;;;;;;;14.67;8.63;;;0.60;99.90;;;;;;5016344;28;20190;-87
2022/01/19 02:03:42;;;;;;;11.93;8.40;;;0.50;99.90;;;;;;5016152;28;20186;-87
2022/01/19 02:08:40;;;;;;;12.33;8.17;;;0.50;99.90;;;;;;5033961;28;20168;-87
2022/01/19 02:16:43;;;;;;;11.07;7.97;;;0.40;99.90;;;;;;5034430;28;20728;-87
2022/01/19 02:22:04;;;;;;;13.83;8.50;;;0.40;99.90;;;;;;5037652;28;20169;-87
2022/01/19 02:24:42;;;;;;;14.40;7.20;;;0.40;99.90;;;;;;5036165;28;20220;-87
2022/01/19 02:28:58;;;;;;;10.07;8.03;;;0.40;99.90;;;;;;5036024;28;20665;-87
2022/01/19 02:40:48;;;;;;;9.63;7.93;;;0.30;99.90;;;;;;5033615;28;20637;-87
2022/01/19 02:43:21;;;;;;;12.50;7.60;;;0.30;99.90;;;;;;5033717;28;20217;-88
2022/01/19 02:51:15;;;;;;;12.00;8.30;;;0.20;99.90;;;;;;5039196;28;20192;-88
2022/01/19 02:53:41;;;;;;;13.00;7.83;;;0.10;99.90;;;;;;5029335;28;20204;-87
2022/01/19 02:56:13;;;;;;;12.63;7.67;;;-0.10;99.90;;;;;;5051865;28;20245;-87
2022/01/19 02:58:52;;;;;;;12.93;8.27;;;0.00;99.90;;;;;;5024749;28;20177;-87
2022/01/19 03:09:28;;;;;;;10.93;7.80;;;0.00;99.90;;;;;;5040035;28;20164;-87
2022/01/19 03:11:55;;;;;;;10.07;7.27;;;-0.10;99.90;;;;;;5021858;28;20178;-87
2022/01/19 03:14:21;;;;;;;14.17;8.47;;;0.00;99.90;;;;;;5021973;28;20189;-87
2022/01/19 03:16:47;;;;;;;10.90;7.90;;;0.00;99.90;;;;;;5021880;28;20181;-87
2022/01/19 03:19:13;;;;;;;13.57;7.67;;;0.00;99.90;;;;;;5021831;28;20672;-87
2022/01/19 03:21:41;;;;;;;9.77;7.47;;;0.00;99.90;;;;;;5039935;28;20173;-87
2022/01/19 03:24:08;;;;;;;13.23;8.13;;;-0.10;99.90;;;;;;5039365;28;20303;-87
2022/01/19 03:26:34;;;;;;;13.73;7.77;;;-0.20;99.90;;;;;;5039502;28;20291;-86
2022/01/19 03:29:00;;;;;;;11.13;7.57;;;-0.30;99.90;;;;;;5039677;28;20193;-87
2022/01/19 03:31:26;;;;;;;14.53;7.47;;;-0.30;99.90;;;;;;5021889;28;20637;-86
2022/01/19 03:33:51;;;;;;;9.83;8.07;;;-0.30;99.90;;;;;;5039830;28;20204;-87
2022/01/19 03:36:17;;;;;;;11.07;7.63;;;-0.30;99.90;;;;;;5022070;28;20180;-87
2022/01/19 03:38:44;;;;;;;12.90;7.50;;;-0.30;99.90;;;;;;5040030;28;20185;-87
2022/01/19 03:41:10;;;;;;;11.80;7.70;;;-0.30;99.90;;;;;;5039859;28;20204;-87
2022/01/19 03:43:36;;;;;;;10.50;7.23;;;-0.30;99.90;;;;;;5039501;28;20177;-87
2022/01/19 03:46:05;;;;;;;12.53;7.13;;;-0.40;99.90;;;;;;5039628;28;20212;-87
2022/01/19 03:50:57;;;;;;;13.73;7.80;;;-0.40;99.90;;;;;;5039482;28;20181;-88
2022/01/19 03:53:23;;;;;;;10.40;7.80;;;-0.50;99.90;;;;;;5039706;28;20644;-87
2022/01/19 03:55:49;;;;;;;13.93;7.80;;;-0.60;99.90;;;;;;5039542;28;20174;-88
2022/01/19 03:58:14;;;;;;;15.37;8.83;;;-0.60;99.90;;;;;;5021830;28;20211;-87
2022/01/19 04:00:45;;;;;;;13.97;8.20;;;-0.50;99.90;;;;;;5039707;28;20188;-87
2022/01/19 04:03:14;;;;;;;18.20;7.93;;;-0.50;99.90;;;;;;5017910;28;20661;-87
2022/01/19 04:05:56;;;;;;;13.03;8.00;;;-0.60;99.90;;;;;;5018403;28;20571;-87
2022/01/19 04:08:22;;;;;;;12.90;7.73;;;-0.70;99.90;;;;;;5036155;28;20165;-87
2022/01/19 04:10:48;;;;;;;15.23;8.43;;;-0.60;99.90;;;;;;5036026;28;20177;-87
2022/01/19 04:15:53;;;;;;;11.60;7.77;;;-0.60;99.90;;;;;;5036166;28;20526;-87
2022/01/19 04:18:20;;;;;;;11.67;7.77;;;-0.60;99.90;;;;;;5037989;28;20201;-87
2022/01/19 04:20:50;;;;;;;12.97;8.00;;;-0.60;99.90;;;;;;5036314;28;20580;-88
2022/01/19 04:23:18;;;;;;;13.73;7.97;;;-0.60;99.90;;;;;;5035971;28;20818;-88
2022/01/19 04:25:44;;;;;;;15.87;8.00;;;-0.50;99.90;;;;;;5035970;28;20193;-87
2022/01/19 04:28:10;;;;;;;14.17;8.00;;;-0.50;99.90;;;;;;5035850;28;20174;-87
2022/01/19 04:30:37;;;;;;;13.00;7.87;;;-0.50;99.90;;;;;;5018252;28;20186;-87
2022/01/19 04:33:13;;;;;;;14.83;8.30;;;-0.60;99.90;;;;;;5035891;28;20187;-87
2022/01/19 04:35:45;;;;;;;10.23;7.80;;;-0.60;99.90;;;;;;5035946;28;20601;-87
2022/01/19 04:44:13;;;;;;;12.10;8.00;;;-0.60;99.90;;;;;;5041902;28;20512;-87
2022/01/19 05:05:09;;;;;;;11.57;7.63;;;-0.70;99.90;;;;;;5036284;28;20756;-87
2022/01/19 05:15:44;;;;;;;8.87;7.30;;;-0.80;99.90;;;;;;5035016;28;20220;-87
2022/01/19 05:18:10;;;;;;;11.47;7.10;;;-0.70;99.90;;;;;;5035196;28;20176;-87
2022/01/19 05:20:36;;;;;;;13.00;7.63;;;-0.60;99.90;;;;;;5034941;28;20201;-87
2022/01/19 05:23:02;;;;;;;12.63;7.23;;;-0.70;99.90;;;;;;5034639;28;20203;-87
2022/01/19 05:25:28;;;;;;;11.60;7.30;;;-0.80;99.90;;;;;;5017023;28;20271;-88
2022/01/19 05:27:54;;;;;;;9.23;7.00;;;-0.90;99.90;;;;;;5035021;28;20181;-88
2022/01/19 05:30:20;;;;;;;11.87;8.27;;;-1.00;99.90;;;;;;5016822;28;20177;-88
2022/01/19 05:32:46;;;;;;;12.57;7.43;;;-1.10;99.90;;;;;;5016973;28;20207;-87
2022/01/19 05:35:12;;;;;;;16.13;7.83;;;-1.00;99.90;;;;;;5034634;28;20183;-87
2022/01/19 05:37:38;;;;;;;17.20;7.47;;;-1.00;99.90;;;;;;5034825;28;20169;-87
2022/01/19 05:40:09;;;;;;;13.63;6.90;;;-1.00;99.90;;;;;;5034826;28;20203;-87
2022/01/19 05:42:35;;;;;;;13.53;7.80;;;-1.10;99.90;;;;;;5035084;28;20240;-88
2022/01/19 05:45:02;;;;;;;13.13;7.43;;;-1.00;99.90;;;;;;5034495;28;20173;-87
2022/01/19 05:47:28;;;;;;;11.60;7.57;;;-0.90;99.90;;;;;;5016550;28;20301;-87
2022/01/19 05:49:54;;;;;;;15.07;7.63;;;-0.90;99.90;;;;;;5034552;28;20220;-87
2022/01/19 05:52:20;;;;;;;11.23;7.97;;;-0.70;99.90;;;;;;5034360;28;20188;-87
2022/01/19 05:54:47;;;;;;;12.10;7.70;;;-0.70;99.90;;;;;;5016894;28;20180;-87
2022/01/19 05:57:13;;;;;;;12.83;8.37;;;-0.70;99.90;;;;;;5035443;28;20173;-87
2022/01/19 05:59:39;;;;;;;10.87;7.70;;;-0.70;99.90;;;;;;5019993;28;20590;-87
2022/01/19 06:02:05;;;;;;;13.03;8.27;;;-0.70;99.90;;;;;;5017492;28;20210;-88
2022/01/19 06:04:31;;;;;;;15.00;8.20;;;-0.60;99.90;;;;;;5016485;28;20176;-87
2022/01/19 06:06:58;;;;;;;13.10;8.00;;;-0.70;99.90;;;;;;5034390;28;20208;-87
2022/01/19 06:10:11;;;;;;;15.90;8.80;;;-0.70;99.90;;;;;;5018370;28;20610;-87
2022/01/19 06:12:12;;;;;;;14.07;7.63;;;-0.70;99.90;;;;;;5024582;28;20195;-87
2022/01/19 06:14:41;;;;;;;11.27;7.57;;;-0.60;99.90;;;;;;5025777;28;20307;-88
2022/01/19 06:17:09;;;;;;;14.87;8.33;;;-0.60;99.90;;;;;;5023705;28;20188;-87
2022/01/19 06:19:35;;;;;;;14.70;7.87;;;-0.70;99.90;;;;;;5043006;28;20168;-87
2022/01/19 06:22:01;;;;;;;15.13;8.63;;;-0.70;99.90;;;;;;5019204;28;20319;-88
2022/01/19 06:24:27;;;;;;;11.83;7.93;;;-0.70;99.90;;;;;;5017388;28;20259;-87
2022/01/19 06:26:54;;;;;;;13.37;8.07;;;-0.70;99.90;;;;;;5018460;28;20305;-88
2022/01/19 06:29:21;;;;;;;14.83;8.00;;;-0.70;99.90;;;;;;5017011;28;20173;-88
2022/01/19 06:31:47;;;;;;;12.33;8.33;;;-0.80;99.90;;;;;;5023594;28;20239;-87
2022/01/19 06:34:15;;;;;;;12.50;8.60;;;-0.70;99.90;;;;;;5055461;28;20176;-87
2022/01/19 06:36:40;;;;;;;14.87;8.87;;;-0.80;99.90;;;;;;5034188;28;20252;-87
2022/01/19 06:39:06;;;;;;;16.83;9.37;;;-0.80;99.90;;;;;;5035379;28;20203;-87
2022/01/19 06:41:33;;;;;;;15.43;8.07;;;-0.80;99.90;;;;;;5015772;28;20184;-87
2022/01/19 06:43:59;;;;;;;17.90;9.00;;;-0.80;99.90;;;;;;5033561;28;20630;-87
2022/01/19 06:46:24;;;;;;;14.13;8.90;;;-0.80;99.90;;;;;;5033739;28;20249;-87
2022/01/19 06:48:50;;;;;;;14.33;8.70;;;-0.80;99.90;;;;;;5033704;28;20176;-87
2022/01/19 06:51:16;;;;;;;14.53;8.53;;;-0.80;99.90;;;;;;5016196;28;20236;-87
2022/01/19 06:53:42;;;;;;;17.83;9.67;;;-0.90;99.90;;;;;;5033491;28;20247;-88
2022/01/19 06:56:08;;;;;;;17.33;9.67;;;-0.80;99.90;;;;;;5033628;28;20261;-88
2022/01/19 06:58:34;;;;;;;16.30;10.67;;;-0.80;99.90;;;;;;5015790;28;20173;-87
2022/01/19 07:01:00;;;;;;;17.10;9.90;;;-0.80;99.90;;;;;;5033477;28;20183;-87
2022/01/19 07:03:26;;;;;;;18.83;9.97;;;-0.80;99.90;;;;;;5034097;28;20177;-88
2022/01/19 07:05:52;;;;;;;15.03;9.20;;;-0.80;99.90;;;;;;5015822;28;20216;-87
2022/01/19 07:08:17;;;;;;;17.40;9.23;;;-0.90;99.90;;;;;;5034103;28;20185;-88
2022/01/19 07:10:43;;;;;;;14.03;9.60;;;-0.80;99.90;;;;;;5033376;28;20188;-86
2022/01/19 07:13:09;;;;;;;21.77;9.60;;;-0.90;99.90;;;;;;5015767;28;20511;-87
2022/01/19 07:15:36;;;;;;;17.40;8.43;;;-0.80;99.90;;;;;;5034471;28;20243;-86
2022/01/19 07:18:03;;;;;;;15.93;9.13;;;-0.80;99.90;;;;;;5036049;28;20165;-88
2022/01/19 07:20:30;;;;;;;16.83;8.53;;;-0.90;99.90;;;;;;5037359;28;20214;-88
2022/01/19 07:23:01;;;;;;;18.17;8.67;;;-0.90;99.90;;;;;;5015608;28;20176;-87
2022/01/19 07:25:31;;;;;;;17.50;8.23;;;-0.90;99.90;;;;;;5033561;28;20161;-88
2022/01/19 07:27:57;;;;;;;14.03;8.23;;;-0.90;99.90;;;;;;5033349;28;20177;-87
2022/01/19 07:30:24;;;;;;;17.77;8.23;;;-0.80;99.90;;;;;;5015822;28;20207;-87
2022/01/19 07:32:51;;;;;;;13.40;7.80;;;-0.80;99.90;;;;;;5015508;28;20181;-87
2022/01/19 07:35:17;;;;;;;13.50;8.53;;;-0.70;99.90;;;;;;5022689;28;20184;-87
2022/01/19 07:37:43;;;;;;;16.43;8.63;;;-0.60;99.90;;;;;;5037124;28;20165;-88
2022/01/19 07:40:10;;;;;;;15.27;8.80;;;-0.50;99.90;;;;;;5037462;28;20537;-88
2022/01/19 07:42:36;;;;;;;11.90;7.93;;;-0.60;99.90;;;;;;5020062;28;20169;-88
2022/01/19 07:45:03;;;;;;;13.50;8.20;;;-0.50;99.90;;;;;;5037081;28;20508;-88
2022/01/19 07:47:30;;;;;;;14.43;8.57;;;-0.40;99.90;;;;;;5022374;28;20262;-88
2022/01/19 07:49:57;;;;;;;12.13;7.77;;;-0.30;99.90;;;;;;5041086;28;20168;-87
2022/01/19 07:52:24;;;;;;;15.50;8.43;;;-0.20;99.90;;;;;;5019275;28;20181;-86
2022/01/19 07:54:50;;;;;;;12.27;7.93;;;-0.20;99.90;;;;;;5036504;28;20172;-87
2022/01/19 07:57:16;;;;;;;13.77;8.23;;;-0.10;99.90;;;;;;5035057;28;20567;-87
2022/01/19 07:59:42;;;;;;;15.17;8.70;;;0.00;99.90;;;;;;5036371;28;20170;-87
2022/01/19 08:02:11;;;;;;;14.40;8.20;;;-0.10;99.90;;;;;;5036547;28;20632;-87
2022/01/19 08:04:37;;;;;;;13.33;8.50;;;0.00;99.90;;;;;;5036361;28;20175;-88
2022/01/19 08:07:03;;;;;;;13.03;8.30;;;0.00;99.90;;;;;;5036514;28;20703;-88
2022/01/19 08:09:31;;;;;;;16.70;7.97;;;0.20;99.90;;;;;;5035274;28;20182;-88
2022/01/19 08:11:57;;;;;;;14.73;8.40;;;0.20;99.90;;;;;;5018711;28;20228;-87
2022/01/19 08:14:24;;;;;;;14.63;8.97;;;0.20;99.90;;;;;;5018979;28;20184;-87
2022/01/19 08:16:56;;;;;;;12.10;8.23;;;0.20;99.90;;;;;;5019004;28;20592;-87
2022/01/19 08:19:23;;;;;;;16.27;8.47;;;0.20;99.90;;;;;;5019836;28;20177;-87
2022/01/19 08:21:52;;;;;;;13.13;8.53;;;0.30;99.90;;;;;;5039936;28;20211;-88
2022/01/19 08:24:19;;;;;;;17.53;8.40;;;0.30;99.90;;;;;;5019166;28;20235;-88
2022/01/19 08:26:45;;;;;;;15.47;8.80;;;0.40;99.90;;;;;;5022862;28;20279;-87
2022/01/19 08:29:11;;;;;;;17.53;8.73;;;0.50;99.90;;;;;;4999617;28;20190;-87
2022/01/19 08:31:37;;;;;;;15.37;8.57;;;0.50;99.90;;;;;;5017381;28;20732;-88
2022/01/19 08:34:04;;;;;;;14.00;8.37;;;0.60;99.90;;;;;;4998874;28;20173;-88
2022/01/19 08:36:30;;;;;;;16.13;8.70;;;0.60;99.90;;;;;;5016808;28;20649;-88
2022/01/19 08:38:56;;;;;;;19.30;9.60;;;0.70;99.90;;;;;;4998959;28;20183;-88
2022/01/19 08:41:22;;;;;;;19.17;10.20;;;0.70;99.90;;;;;;5016528;28;20181;-88
2022/01/19 08:43:48;;;;;;;15.40;9.93;;;0.70;99.90;;;;;;4999157;28;20190;-88
2022/01/19 08:46:15;;;;;;;15.37;9.13;;;0.80;99.90;;;;;;4998350;28;20534;-88
2022/01/19 08:48:41;;;;;;;15.90;9.70;;;0.80;99.90;;;;;;4997731;28;20187;-88
2022/01/19 08:51:08;;;;;;;15.50;9.70;;;0.80;99.90;;;;;;5015762;28;20182;-88
2022/01/19 08:53:34;;;;;;;12.70;9.83;;;0.80;99.90;;;;;;4998230;28;20278;-88
2022/01/19 08:55:59;;;;;;;14.60;9.83;;;0.80;99.90;;;;;;5015716;28;20253;-88
2022/01/19 08:58:25;;;;;;;16.33;10.97;;;0.80;99.90;;;;;;5015623;28;20261;-88
2022/01/19 09:00:51;;;;;;;22.73;11.13;;;0.90;99.90;;;;;;5015949;28;20175;-88
2022/01/19 09:03:18;;;;;;;21.40;12.30;;;0.80;99.90;;;;;;5015608;28;20180;-87
2022/01/19 09:05:46;;;;;;;22.47;12.47;;;0.90;99.90;;;;;;5015746;28;20202;-88
2022/01/19 09:08:12;;;;;;;22.23;12.07;;;0.90;99.90;;;;;;5015654;28;20646;-88
2022/01/19 09:10:40;;;;;;;22.73;12.77;;;0.90;99.90;;;;;;5015693;28;20186;-88
2022/01/19 09:13:07;;;;;;;18.07;12.07;;;0.80;99.90;;;;;;4998037;28;20183;-88
2022/01/19 09:15:34;;;;;;;19.80;12.63;;;0.90;99.90;;;;;;4998208;28;20187;-88
2022/01/19 09:18:00;;;;;;;21.90;12.33;;;0.90;99.90;;;;;;4998151;28;20261;-88
2022/01/19 09:20:26;;;;;;;18.60;11.80;;;1.10;99.90;;;;;;4998165;28;20174;-88
2022/01/19 09:22:52;;;;;;;19.63;11.67;;;1.30;99.90;;;;;;5016484;28;20179;-88
2022/01/19 09:25:18;;;;;;;16.97;11.57;;;1.40;99.90;;;;;;5035586;28;20178;-88
2022/01/19 09:27:45;;;;;;;20.57;11.27;;;1.30;99.90;;;;;;5017390;28;20217;-88
2022/01/19 09:30:18;;;;;;;19.50;12.10;;;1.30;99.90;;;;;;5035169;28;20177;-88
2022/01/19 09:32:54;;;;;;;18.47;11.67;;;1.30;99.90;;;;;;5017296;28;20179;-88
2022/01/19 09:35:24;;;;;;;20.83;11.70;;;1.40;99.90;;;;;;5034987;28;20167;-88
2022/01/19 09:37:50;;;;;;;20.00;11.93;;;1.30;99.90;;;;;;5035184;28;20173;-88
2022/01/19 09:40:17;;;;;;;19.33;11.63;;;1.40;99.90;;;;;;5034759;28;20665;-88
2022/01/19 09:42:45;;;;;;;18.67;11.60;;;1.40;99.90;;;;;;5034973;28;20249;-88
2022/01/19 09:45:11;;;;;;;21.47;11.77;;;1.40;99.90;;;;;;5034632;28;20177;-88
2022/01/19 09:47:36;;;;;;;21.10;11.77;;;1.40;99.90;;;;;;5017794;28;20656;-87
2022/01/19 09:50:03;;;;;;;16.23;10.83;;;1.40;99.90;;;;;;5016868;28;20175;-88
2022/01/19 09:52:29;;;;;;;15.17;10.57;;;1.60;99.90;;;;;;5034557;28;20177;-87
2022/01/19 09:54:56;;;;;;;17.20;11.00;;;1.60;99.90;;;;;;5016664;28;20189;-88
2022/01/19 09:57:22;;;;;;;14.87;10.57;;;1.60;99.90;;;;;;5016694;28;20183;-88
2022/01/19 09:59:48;;;;;;;17.33;10.93;;;1.70;99.90;;;;;;5033344;28;20214;-88
2022/01/19 10:02:20;;;;;;;14.67;10.33;;;1.70;99.90;;;;;;5034838;28;20205;-88
2022/01/19 10:04:47;;;;;;;16.87;10.37;;;1.80;99.90;;;;;;5034429;28;20172;-88
2022/01/19 10:07:23;;;;;;;14.97;9.83;;;1.90;99.90;;;;;;5017976;28;20237;-88
2022/01/19 10:09:56;;;;;;;14.87;10.47;;;1.90;99.90;;;;;;5033040;28;20629;-88
2022/01/19 10:18:21;;;;;;;16.30;9.90;;;1.90;99.90;;;;;;5037612;28;20201;-88
2022/01/19 10:21:03;;;;;;;14.33;10.80;;;1.90;99.90;;;;;;5017537;28;20190;-88
2022/01/19 10:23:48;;;;;;;19.97;10.77;;;2.00;99.90;;;;;;5034992;28;20226;-88
2022/01/19 10:26:22;;;;;;;16.63;9.90;;;2.00;99.90;;;;;;5016392;28;20203;-88
2022/01/19 10:28:58;;;;;;;18.73;9.97;;;2.00;99.90;;;;;;5034189;28;20483;-88
2022/01/19 10:31:25;;;;;;;21.87;10.60;;;2.10;99.90;;;;;;5016085;28;20722;-88
2022/01/19 10:34:14;;;;;;;16.83;10.50;;;2.20;99.90;;;;;;5033802;28;20165;-88
2022/01/19 10:36:48;;;;;;;15.80;10.83;;;2.10;99.90;;;;;;5015924;28;20215;-88
2022/01/19 10:39:16;;;;;;;18.40;11.03;;;2.10;99.90;;;;;;5016041;28;20170;-88
2022/01/19 10:41:57;;;;;;;17.57;11.47;;;2.20;99.90;;;;;;5016028;28;20179;-88
2022/01/19 10:44:30;;;;;;;16.07;10.77;;;2.30;99.90;;;;;;5016371;28;20183;-88
2022/01/19 10:46:59;;;;;;;14.40;11.47;;;2.30;99.90;;;;;;5016489;28;20211;-88
2022/01/19 10:49:27;;;;;;;18.30;11.53;;;2.50;99.90;;;;;;5034395;28;20172;-87
2022/01/19 10:51:58;;;;;;;17.97;10.83;;;2.40;99.90;;;;;;5043214;28;20180;-88
2022/01/19 10:54:26;;;;;;;17.93;10.87;;;2.60;99.90;;;;;;5029537;28;20179;-88
2022/01/19 10:56:57;;;;;;;18.43;11.33;;;2.50;99.90;;;;;;5024207;28;20177;-88
2022/01/19 10:59:29;;;;;;;21.17;11.13;;;2.50;99.90;;;;;;5037267;28;20695;-89
2022/01/19 11:01:58;;;;;;;19.57;10.90;;;2.50;99.90;;;;;;5018851;28;20178;-88
2022/01/19 11:04:32;;;;;;;16.37;10.70;;;2.70;99.90;;;;;;5018800;28;20259;-88
2022/01/19 11:07:05;;;;;;;15.23;11.13;;;2.80;99.90;;;;;;5035960;28;20207;-88
2022/01/19 11:09:34;;;;;;;18.63;11.23;;;2.70;99.90;;;;;;5017756;28;20182;-88
2022/01/19 11:12:10;;;;;;;15.40;10.70;;;2.70;99.90;;;;;;5018581;28;20180;-88
2022/01/19 11:14:36;;;;;;;16.07;11.83;;;2.90;99.90;;;;;;5019951;28;20178;-88
2022/01/19 11:17:02;;;;;;;13.43;10.80;;;3.10;99.90;;;;;;5038009;28;20202;-89
2022/01/19 11:19:28;;;;;;;15.33;12.23;;;3.10;99.90;;;;;;5037391;28;20183;-88
2022/01/19 11:22:40;;;;;;;15.33;11.23;;;3.00;99.90;;;;;;5020284;28;20229;-88
2022/01/19 11:25:17;;;;;;;13.77;10.97;;;3.00;99.90;;;;;;5037331;28;20746;-88
2022/01/19 11:27:47;;;;;;;16.50;11.97;;;3.00;99.90;;;;;;5037507;28;20675;-88
2022/01/19 11:30:28;;;;;;;15.37;11.30;;;3.00;99.90;;;;;;5019908;28;20182;-88
2022/01/19 11:33:14;;;;;;;18.57;11.60;;;3.10;99.90;;;;;;5038519;28;20528;-89
2022/01/19 11:35:44;;;;;;;16.53;11.13;;;3.10;99.90;;;;;;5020468;28;20576;-88
2022/01/19 11:38:34;;;;;;;13.80;11.67;;;3.10;99.90;;;;;;5019874;28;20645;-88
2022/01/19 11:41:03;;;;;;;16.23;11.83;;;3.20;99.90;;;;;;5037661;28;20235;-88
2022/01/19 11:43:31;;;;;;;17.17;11.70;;;3.20;99.90;;;;;;5019805;28;20276;-88
2022/01/19 11:45:58;;;;;;;14.37;11.23;;;3.20;99.90;;;;;;5039354;28;20204;-88
2022/01/19 11:48:26;;;;;;;16.53;11.67;;;3.20;99.90;;;;;;5042491;28;20181;-89
2022/01/19 11:50:54;;;;;;;17.00;11.77;;;3.30;99.90;;;;;;5040231;28;20178;-89
2022/01/19 11:53:20;;;;;;;19.60;12.47;;;3.30;99.90;;;;;;5038755;28;20227;-89
2022/01/19 11:56:08;;;;;;;20.13;12.47;;;3.30;99.90;;;;;;5021077;28;20177;-88
2022/01/19 11:58:34;;;;;;;15.90;11.53;;;3.30;99.90;;;;;;5025719;28;20202;-88
2022/01/19 12:01:01;;;;;;;19.37;13.40;;;3.40;99.90;;;;;;5036303;28;20160;-88
2022/01/19 12:03:38;;;;;;;17.43;11.50;;;3.50;99.90;;;;;;5045995;28;20269;-88
2022/01/19 12:06:04;;;;;;;17.80;12.23;;;3.50;99.90;;;;;;5037348;28;20227;-89
2022/01/19 12:08:33;;;;;;;15.93;11.40;;;3.50;99.90;;;;;;5018630;28;20640;-88
2022/01/19 12:11:16;;;;;;;19.80;12.43;;;3.40;99.90;;;;;;5018478;28;20631;-88
2022/01/19 12:14:20;;;;;;;18.23;10.97;;;3.50;99.90;;;;;;5036296;28;20165;-88
2022/01/19 12:17:08;;;;;;;16.23;11.73;;;3.60;99.90;;;;;;5018437;28;20673;-88
2022/01/19 12:19:40;;;;;;;15.23;11.07;;;3.60;99.90;;;;;;5036059;28;20154;-88
2022/01/19 12:22:20;;;;;;;18.10;11.60;;;3.60;99.90;;;;;;5035973;28;20214;-88
2022/01/19 12:24:59;;;;;;;17.63;11.43;;;3.60;99.90;;;;;;5035474;28;20737;-88
2022/01/19 12:27:39;;;;;;;17.43;11.53;;;3.60;99.90;;;;;;5018176;28;20209;-88
2022/01/19 12:30:13;;;;;;;15.67;11.27;;;3.70;99.90;;;;;;5018039;28;20184;-88
2022/01/19 12:32:54;;;;;;;15.50;11.33;;;3.60;99.90;;;;;;5036030;28;20216;-87
2022/01/19 12:35:39;;;;;;;15.80;11.37;;;3.60;99.90;;;;;;5018154;28;20218;-87
2022/01/19 12:38:17;;;;;;;15.23;11.13;;;3.50;99.90;;;;;;5018247;28;20231;-88
2022/01/19 12:40:44;;;;;;;16.63;10.70;;;3.60;99.90;;;;;;5036091;28;20195;-88
2022/01/19 12:43:34;;;;;;;13.90;11.17;;;3.60;99.90;;;;;;5036826;28;20221;-88
2022/01/19 12:46:04;;;;;;;14.30;10.87;;;3.70;99.90;;;;;;5008876;28;20575;-88
2022/01/19 12:48:47;;;;;;;15.63;11.53;;;3.80;99.90;;;;;;5018022;28;20177;-88
2022/01/19 12:51:35;;;;;;;17.30;11.03;;;3.70;99.90;;;;;;5017913;28;20210;-88
2022/01/19 12:54:02;;;;;;;14.90;10.93;;;3.80;99.90;;;;;;5036229;28;20556;-88
2022/01/19 12:56:28;;;;;;;17.80;11.13;;;3.80;99.90;;;;;;5035665;28;20690;-88
2022/01/19 12:59:02;;;;;;;16.77;11.30;;;3.90;99.90;;;;;;5017804;28;20169;-88
2022/01/19 13:01:30;;;;;;;15.43;11.40;;;3.80;99.90;;;;;;5035356;28;20170;-87
2022/01/19 13:03:57;;;;;;;16.17;11.40;;;3.80;99.90;;;;;;5017544;28;20176;-88
2022/01/19 13:06:26;;;;;;;15.17;11.50;;;3.80;99.90;;;;;;5035189;28;20213;-87
2022/01/19 13:09:05;;;;;;;20.20;11.97;;;3.70;99.90;;;;;;5017444;28;20177;-87
2022/01/19 13:11:49;;;;;;;15.87;11.53;;;3.70;99.90;;;;;;5035247;28;20167;-88
2022/01/19 13:14:16;;;;;;;17.20;11.63;;;3.70;99.90;;;;;;5017310;28;20196;-88
2022/01/19 13:16:48;;;;;;;19.53;12.07;;;3.70;99.90;;;;;;5035475;28;20260;-88
2022/01/19 13:19:23;;;;;;;18.07;11.70;;;3.70;99.90;;;;;;5017754;28;20170;-88
2022/01/19 13:22:00;;;;;;;19.43;11.90;;;3.80;99.90;;;;;;5017789;28;20187;-87
2022/01/19 13:24:27;;;;;;;16.00;10.93;;;3.80;99.90;;;;;;5036035;28;20304;-88
2022/01/19 13:26:57;;;;;;;22.77;11.73;;;3.80;99.90;;;;;;5017869;28;20215;-88
2022/01/19 13:29:34;;;;;;;18.60;11.40;;;3.70;99.90;;;;;;5035424;28;20154;-88
2022/01/19 13:32:04;;;;;;;17.43;11.20;;;3.70;99.90;;;;;;5035162;28;20168;-88
2022/01/19 13:34:35;;;;;;;14.80;11.10;;;3.70;99.90;;;;;;5018124;28;20211;-88
2022/01/19 13:37:03;;;;;;;15.23;11.63;;;3.80;99.90;;;;;;5017426;28;20219;-88
2022/01/19 13:39:32;;;;;;;14.23;11.03;;;3.90;99.90;;;;;;5017272;28;20545;-88
2022/01/19 13:41:59;;;;;;;14.20;10.70;;;3.80;99.90;;;;;;5017472;28;20225;-88
2022/01/19 13:44:33;;;;;;;15.30;11.03;;;3.90;99.90;;;;;;5017174;28;20178;-88
2022/01/19 13:47:15;;;;;;;13.57;9.83;;;3.90;99.90;;;;;;5036667;28;20197;-88
2022/01/19 13:49:41;;;;;;;15.80;10.93;;;3.80;99.90;;;;;;5045814;28;20148;-88
2022/01/19 13:52:10;;;;;;;14.63;11.60;;;3.90;99.90;;;;;;5045909;28;20180;-87
2022/01/19 13:54:40;;;;;;;15.93;11.20;;;3.80;99.60;;;;;;5018696;28;20719;-88
2022/01/19 13:57:06;;;;;;;15.33;11.13;;;3.80;99.80;;;;;;5034716;28;20176;-88
2022/01/19 13:59:33;;;;;;;13.60;10.97;;;3.90;99.60;;;;;;5017070;28;20180;-88
2022/01/19 14:02:02;;;;;;;18.10;11.07;;;3.90;99.60;;;;;;5017370;28;20182;-88
2022/01/19 14:04:33;;;;;;;19.40;11.60;;;3.90;99.80;;;;;;5018632;28;20179;-87
2022/01/19 14:07:12;;;;;;;13.40;10.70;;;3.90;99.80;;;;;;5018907;28;20674;-88
2022/01/19 14:09:38;;;;;;;17.30;10.67;;;3.80;99.90;;;;;;5019641;28;20286;-87
2022/01/19 14:12:08;;;;;;;13.60;10.67;;;3.90;99.90;;;;;;5033103;28;20215;-88
2022/01/19 14:15:00;;;;;;;16.07;10.93;;;4.00;99.90;;;;;;5051536;28;20153;-87